Time;durP1;ratioP1;P1;durP2;ratioP2;P2;SDS_P1;SDS_P2;PMS_P1;PMS_P2;Temp;Humidity;BMP_temperature;BMP_pressure;BME280_temperature;BME280_humidity;BME280_pressure;Samples;Min_cycle;Max_cycle;Signal;HPM_P1;HPM_P2
2024/01/06 00:00:16;;;;;;;7.88;3.88;;;;;;;3.94;100.00;92682.59;5030152;28;20111;-66
2024/01/06 00:02:43;;;;;;;8.02;4.25;;;;;;;3.85;100.00;92674.16;5030516;28;20118;-66
2024/01/06 00:05:10;;;;;;;9.03;3.80;;;;;;;3.98;100.00;92677.13;5030456;28;20048;-65
2024/01/06 00:07:37;;;;;;;7.85;3.35;;;;;;;4.03;100.00;92684.06;5030439;28;20429;-66
2024/01/06 00:10:04;;;;;;;6.72;3.85;;;;;;;3.92;100.00;92679.50;5028997;28;20457;-65
2024/01/06 00:12:31;;;;;;;6.50;3.35;;;;;;;3.77;100.00;92681.59;5030390;28;20044;-65
2024/01/06 00:14:57;;;;;;;7.18;3.28;;;;;;;3.74;100.00;92692.47;5030148;28;20380;-65
2024/01/06 00:17:24;;;;;;;13.17;6.47;;;;;;;3.87;100.00;92690.81;5030349;28;20060;-66
2024/01/06 00:19:51;;;;;;;7.50;3.28;;;;;;;3.83;100.00;92690.06;5030354;28;20053;-66
2024/01/06 00:22:19;;;;;;;5.72;3.13;;;;;;;3.69;100.00;92688.25;5028743;28;20037;-65
2024/01/06 00:24:46;;;;;;;4.93;2.53;;;;;;;3.71;100.00;92694.06;5029762;28;20048;-66
2024/01/06 00:27:13;;;;;;;7.70;2.88;;;;;;;3.68;100.00;92699.50;5029679;28;20056;-65
2024/01/06 00:29:40;;;;;;;4.93;2.10;;;;;;;3.49;100.00;92700.84;5028957;28;20409;-66
2024/01/06 00:32:07;;;;;;;6.07;1.90;;;;;;;3.69;100.00;92698.34;5029703;28;20064;-65
2024/01/06 00:34:34;;;;;;;5.47;2.20;;;;;;;3.62;100.00;92695.69;5030561;28;20051;-66
2024/01/06 00:37:01;;;;;;;5.07;2.13;;;;;;;3.54;100.00;92698.47;5029348;28;20503;-65
2024/01/06 00:39:27;;;;;;;6.68;2.40;;;;;;;3.43;100.00;92700.50;5029453;28;20061;-66
2024/01/06 00:41:55;;;;;;;5.27;2.20;;;;;;;3.53;100.00;92707.78;5028938;28;20072;-65
2024/01/06 00:44:22;;;;;;;4.35;2.35;;;;;;;3.48;100.00;92705.50;5027794;28;20409;-67
2024/01/06 00:46:49;;;;;;;5.63;2.70;;;;;;;3.66;100.00;92701.84;5029683;28;20402;-66
2024/01/06 00:49:15;;;;;;;6.00;2.38;;;;;;;3.69;100.00;92706.50;5029364;28;20058;-66
2024/01/06 00:51:42;;;;;;;8.15;2.53;;;;;;;3.71;100.00;92701.44;5029554;28;20037;-66
2024/01/06 00:54:09;;;;;;;5.20;2.30;;;;;;;3.69;100.00;92709.19;5029308;28;20052;-66
2024/01/06 00:56:36;;;;;;;6.60;2.80;;;;;;;3.64;100.00;92715.81;5029606;28;20405;-66
2024/01/06 00:59:03;;;;;;;5.68;2.40;;;;;;;3.77;100.00;92716.09;5029272;28;20567;-65
2024/01/06 01:01:29;;;;;;;6.57;2.13;;;;;;;3.66;100.00;92726.25;5029889;28;20037;-66
2024/01/06 01:03:56;;;;;;;5.03;1.90;;;;;;;3.44;100.00;92728.38;5029198;28;20048;-65
2024/01/06 01:06:23;;;;;;;3.93;2.20;;;;;;;3.42;100.00;92733.44;5029699;28;20049;-66
2024/01/06 01:08:50;;;;;;;4.03;2.10;;;;;;;3.68;100.00;92724.72;5029282;28;20049;-66
2024/01/06 01:11:17;;;;;;;4.45;2.58;;;;;;;3.67;100.00;92730.53;5029244;28;20433;-66
2024/01/06 01:13:43;;;;;;;5.63;2.60;;;;;;;3.66;100.00;92728.97;5029467;28;20053;-66
2024/01/06 01:16:10;;;;;;;5.32;2.38;;;;;;;3.44;100.00;92737.31;5044054;28;20049;-66
2024/01/06 01:18:37;;;;;;;5.17;1.90;;;;;;;3.53;100.00;92740.31;5029306;28;20075;-67
2024/01/06 01:21:04;;;;;;;5.03;2.35;;;;;;;3.73;100.00;92731.66;5029017;28;20049;-65
2024/01/06 01:23:31;;;;;;;7.22;2.50;;;;;;;3.43;100.00;92746.59;5028087;28;20055;-66
2024/01/06 01:25:58;;;;;;;5.45;2.40;;;;;;;3.47;100.00;92736.50;5029206;28;20037;-66
2024/01/06 01:28:24;;;;;;;4.07;2.30;;;;;;;3.16;100.00;92746.41;5029501;28;20042;-66
2024/01/06 01:30:51;;;;;;;6.23;2.20;;;;;;;3.28;100.00;92748.66;5029189;28;20049;-66
2024/01/06 01:33:18;;;;;;;6.63;2.20;;;;;;;3.09;100.00;92749.91;5029005;28;20038;-66
2024/01/06 01:35:45;;;;;;;4.63;2.70;;;;;;;3.11;100.00;92750.28;5029168;28;20075;-66
2024/01/06 01:38:12;;;;;;;7.22;2.40;;;;;;;2.92;100.00;92751.56;5028794;28;20701;-66
2024/01/06 01:40:39;;;;;;;4.72;2.90;;;;;;;2.83;100.00;92750.44;5028920;28;20041;-66
2024/01/06 01:43:06;;;;;;;5.13;2.70;;;;;;;2.82;100.00;92754.31;5028846;28;20045;-65
2024/01/06 01:45:33;;;;;;;5.75;2.47;;;;;;;2.89;100.00;92754.28;5029070;28;20095;-66
2024/01/06 01:48:00;;;;;;;7.75;2.47;;;;;;;2.97;100.00;92759.28;5028477;28;20482;-66
2024/01/06 01:50:27;;;;;;;7.60;3.05;;;;;;;2.77;100.00;92767.09;5030022;28;20042;-66
2024/01/06 01:52:54;;;;;;;5.88;2.80;;;;;;;3.05;100.00;92765.44;5033064;28;20046;-66
2024/01/06 01:55:21;;;;;;;6.10;2.90;;;;;;;2.99;100.00;92767.00;5032456;28;20444;-66
2024/01/06 01:57:48;;;;;;;6.88;2.47;;;;;;;2.95;100.00;92766.25;5033023;28;20118;-66
2024/01/06 02:00:15;;;;;;;5.22;2.42;;;;;;;2.98;100.00;92768.97;5032632;28;20055;-66
2024/01/06 02:02:42;;;;;;;6.15;2.80;;;;;;;2.93;100.00;92768.59;5032675;28;20416;-66
2024/01/06 02:05:09;;;;;;;4.90;2.92;;;;;;;2.98;100.00;92760.81;5032372;28;20072;-66
2024/01/06 02:07:36;;;;;;;5.10;2.60;;;;;;;3.03;100.00;92765.06;5032704;28;20049;-67
2024/01/06 02:10:03;;;;;;;5.20;2.50;;;;;;;2.94;100.00;92765.50;5032427;28;20414;-67
2024/01/06 02:12:30;;;;;;;18.15;7.28;;;;;;;2.75;100.00;92769.44;5032948;28;20046;-67
2024/01/06 02:14:57;;;;;;;15.27;5.65;;;;;;;2.70;100.00;92767.16;5032246;28;20094;-67
2024/01/06 02:17:25;;;;;;;7.55;3.22;;;;;;;2.75;100.00;92757.84;5011437;28;20486;-67
2024/01/06 02:19:52;;;;;;;6.20;2.80;;;;;;;2.63;100.00;92759.03;5020701;28;20057;-67
2024/01/06 02:22:19;;;;;;;6.30;2.33;;;;;;;2.77;100.00;92753.56;5031118;28;20055;-67
2024/01/06 02:24:46;;;;;;;5.40;2.97;;;;;;;2.65;100.00;92770.25;5032599;28;20052;-67
2024/01/06 02:27:14;;;;;;;6.07;2.50;;;;;;;2.73;100.00;92760.16;5032346;28;20049;-66
2024/01/06 02:29:41;;;;;;;4.93;2.40;;;;;;;2.61;100.00;92772.22;5030871;28;20071;-66
2024/01/06 02:32:07;;;;;;;6.30;2.90;;;;;;;2.58;100.00;92770.31;5032071;28;20046;-66
2024/01/06 02:34:34;;;;;;;7.25;2.78;;;;;;;2.57;100.00;92768.75;5032475;28;20496;-67
2024/01/06 02:37:02;;;;;;;5.18;2.95;;;;;;;2.48;100.00;92754.88;5032023;28;20046;-66
2024/01/06 02:39:28;;;;;;;5.47;2.60;;;;;;;2.42;100.00;92764.56;5032285;28;20145;-66
2024/01/06 02:41:55;;;;;;;6.30;2.80;;;;;;;2.60;100.00;92771.44;5031657;28;20486;-65
2024/01/06 02:44:22;;;;;;;4.43;2.63;;;;;;;2.68;100.00;92774.13;5032621;28;20048;-66
2024/01/06 02:46:48;;;;;;;6.18;2.63;;;;;;;2.51;100.00;92773.78;5030743;28;20110;-66
2024/01/06 02:49:15;;;;;;;5.30;2.78;;;;;;;2.62;100.00;92762.13;5031713;28;20516;-66
2024/01/06 02:51:42;;;;;;;6.55;2.78;;;;;;;2.54;100.00;92759.47;5030332;28;20391;-66
2024/01/06 02:54:09;;;;;;;7.00;2.83;;;;;;;2.60;100.00;92773.38;5031517;28;20051;-66
2024/01/06 02:56:36;;;;;;;6.20;3.37;;;;;;;2.33;100.00;92771.13;5032250;28;20387;-66
2024/01/06 02:59:02;;;;;;;6.38;2.90;;;;;;;2.36;100.00;92772.31;5031625;28;20123;-65
2024/01/06 03:01:29;;;;;;;6.28;3.35;;;;;;;2.41;100.00;92766.47;5031850;28;20054;-66
2024/01/06 03:03:56;;;;;;;7.28;2.90;;;;;;;2.47;100.00;92769.56;5030848;28;20489;-65
2024/01/06 03:06:23;;;;;;;6.20;3.20;;;;;;;2.59;100.00;92774.53;5031936;28;20072;-66
2024/01/06 03:08:50;;;;;;;6.83;2.83;;;;;;;2.56;100.00;92767.22;5031540;28;20051;-66
2024/01/06 03:11:16;;;;;;;5.85;3.17;;;;;;;2.61;100.00;92766.78;5031674;28;20041;-66
2024/01/06 03:13:43;;;;;;;7.32;3.30;;;;;;;2.55;100.00;92771.06;5031754;28;20163;-66
2024/01/06 03:16:11;;;;;;;7.22;3.28;;;;;;;2.58;100.00;92775.72;5031131;28;20401;-66
2024/01/06 03:18:38;;;;;;;6.00;3.47;;;;;;;2.45;100.00;92775.34;5031416;28;20071;-66
2024/01/06 03:21:05;;;;;;;7.53;3.50;;;;;;;2.43;100.00;92776.91;5031042;28;20460;-66
2024/01/06 03:23:32;;;;;;;5.97;2.90;;;;;;;2.57;100.00;92787.69;5031625;28;20038;-66
2024/01/06 03:25:58;;;;;;;7.78;3.63;;;;;;;2.62;100.00;92790.03;5030904;28;20573;-66
2024/01/06 03:28:25;;;;;;;7.38;3.30;;;;;;;2.71;100.00;92797.72;5029976;28;20065;-66
2024/01/06 03:30:52;;;;;;;7.03;3.70;;;;;;;2.59;100.00;92799.69;5030098;28;20059;-66
2024/01/06 03:33:19;;;;;;;7.63;3.33;;;;;;;2.56;100.00;92797.78;5029783;28;20399;-67
2024/01/06 03:35:46;;;;;;;6.32;3.50;;;;;;;2.65;100.00;92807.41;5031126;28;20398;-66
2024/01/06 03:38:13;;;;;;;9.07;3.53;;;;;;;2.62;100.00;92802.78;5030949;28;20449;-66
2024/01/06 03:40:39;;;;;;;7.65;3.92;;;;;;;2.59;100.00;92791.56;5031107;28;20060;-66
2024/01/06 03:43:06;;;;;;;7.25;3.38;;;;;;;2.56;100.00;92791.59;5030834;28;20047;-66
2024/01/06 03:45:33;;;;;;;8.30;3.73;;;;;;;2.69;100.00;92798.09;5031139;28;20409;-68
2024/01/06 03:47:59;;;;;;;6.82;3.55;;;;;;;2.81;100.00;92799.63;5030137;28;20447;-67
2024/01/06 03:50:26;;;;;;;7.13;4.15;;;;;;;2.70;100.00;92788.81;5030794;28;20059;-66
2024/01/06 03:52:53;;;;;;;7.75;3.63;;;;;;;2.80;100.00;92796.13;5030976;28;20053;-67
2024/01/06 03:55:20;;;;;;;10.10;4.03;;;;;;;2.60;100.00;92797.75;5030306;28;20059;-66
2024/01/06 03:57:47;;;;;;;7.53;3.60;;;;;;;2.63;100.00;92798.91;5030806;28;20116;-66
2024/01/06 04:00:14;;;;;;;7.97;4.05;;;;;;;2.67;100.00;92795.00;5030374;28;20050;-66
2024/01/06 04:02:41;;;;;;;8.63;3.78;;;;;;;2.66;100.00;92796.19;5031133;28;20422;-66
2024/01/06 04:05:07;;;;;;;8.85;3.55;;;;;;;2.67;100.00;92795.00;5030807;28;20494;-67
2024/01/06 04:07:34;;;;;;;7.95;3.70;;;;;;;2.84;100.00;92790.72;5030837;28;20060;-67
2024/01/06 04:10:01;;;;;;;9.90;4.10;;;;;;;2.63;100.00;92791.56;5029809;28;20886;-66
2024/01/06 04:12:28;;;;;;;6.38;3.80;;;;;;;2.73;100.00;92806.22;5030628;28;20052;-67
2024/01/06 04:14:55;;;;;;;7.20;4.20;;;;;;;2.83;100.00;92808.13;5029132;28;20414;-67
2024/01/06 04:17:21;;;;;;;10.35;3.90;;;;;;;2.49;100.00;92805.91;5029323;28;20846;-66
2024/01/06 04:19:48;;;;;;;7.65;3.90;;;;;;;2.44;100.00;92802.84;5030409;28;20049;-67
2024/01/06 04:22:15;;;;;;;6.80;3.20;;;;;;;2.47;100.00;92802.06;5030049;28;20114;-66
2024/01/06 04:24:42;;;;;;;8.60;3.70;;;;;;;2.44;100.00;92808.25;5030103;28;20041;-67
2024/01/06 04:27:09;;;;;;;7.38;3.72;;;;;;;2.59;100.00;92810.50;5029860;28;20068;-68
2024/01/06 04:29:36;;;;;;;8.48;3.70;;;;;;;2.52;100.00;92807.84;5030345;28;20060;-67
2024/01/06 04:32:03;;;;;;;7.57;3.85;;;;;;;2.38;100.00;92811.34;5029746;28;20041;-67
2024/01/06 04:34:30;;;;;;;7.17;4.00;;;;;;;2.40;100.00;92810.97;5030314;28;20046;-67
2024/01/06 04:36:57;;;;;;;8.02;3.75;;;;;;;2.35;100.00;92817.53;5029271;28;20057;-66
2024/01/06 04:39:24;;;;;;;6.60;3.67;;;;;;;2.51;100.00;92806.28;5030083;28;20049;-67
2024/01/06 04:41:51;;;;;;;7.03;3.63;;;;;;;2.39;100.00;92806.72;5028692;28;20068;-67
2024/01/06 04:44:20;;;;;;;8.55;3.70;;;;;;;2.29;100.00;92802.09;5029592;28;20041;-67
2024/01/06 04:46:47;;;;;;;9.23;3.30;;;;;;;2.35;100.00;92811.38;5029584;28;20045;-67
2024/01/06 04:49:14;;;;;;;7.10;4.00;;;;;;;2.31;100.00;92807.88;5029491;28;20068;-67
2024/01/06 04:51:41;;;;;;;6.65;3.58;;;;;;;2.24;100.00;92813.34;5029985;28;20042;-68
2024/01/06 04:54:08;;;;;;;7.38;3.75;;;;;;;2.23;100.00;92814.47;5029480;28;20057;-67
2024/01/06 04:56:34;;;;;;;9.30;3.63;;;;;;;2.36;100.00;92812.91;5029955;28;20045;-67
2024/01/06 04:59:02;;;;;;;8.63;3.73;;;;;;;2.32;100.00;92817.56;5029222;28;20055;-67
2024/01/06 05:01:29;;;;;;;7.05;3.30;;;;;;;2.12;100.00;92817.22;5029791;28;20375;-67
2024/01/06 05:03:56;;;;;;;10.80;4.28;;;;;;;2.06;100.00;92824.19;5028983;28;20045;-66
2024/01/06 05:06:23;;;;;;;8.98;4.53;;;;;;;2.02;100.00;92828.81;5029694;28;20068;-67
2024/01/06 05:08:50;;;;;;;8.63;4.20;;;;;;;2.20;100.00;92822.22;5029569;28;20387;-67
2024/01/06 05:11:16;;;;;;;10.50;3.97;;;;;;;2.26;100.00;92824.53;5029397;28;20037;-67
2024/01/06 05:13:43;;;;;;;9.30;4.07;;;;;;;2.26;100.00;92829.97;5029624;28;20463;-67
2024/01/06 05:16:10;;;;;;;9.60;4.13;;;;;;;2.27;100.00;92832.25;5028761;28;20053;-67
2024/01/06 05:18:37;;;;;;;10.57;3.85;;;;;;;2.38;100.00;92827.59;5029569;28;20048;-67
2024/01/06 05:21:04;;;;;;;7.93;4.35;;;;;;;2.07;100.00;92837.31;5028759;28;20042;-66
2024/01/06 05:23:30;;;;;;;8.87;4.23;;;;;;;2.17;100.00;92843.88;5029573;28;20049;-67
2024/01/06 05:25:57;;;;;;;8.48;3.60;;;;;;;2.22;100.00;92838.09;5027212;28;20045;-66
2024/01/06 05:28:24;;;;;;;8.95;4.47;;;;;;;2.12;100.00;92838.88;5029375;28;20053;-67
2024/01/06 05:30:50;;;;;;;9.13;3.92;;;;;;;2.36;100.00;92837.28;5029080;28;20064;-67
2024/01/06 05:33:18;;;;;;;10.82;5.47;;;;;;;2.42;100.00;92843.84;5027698;28;20041;-67
2024/01/06 05:35:44;;;;;;;9.03;4.40;;;;;;;2.51;100.00;92841.50;5029310;28;20037;-67
2024/01/06 05:38:11;;;;;;;9.32;4.30;;;;;;;2.60;100.00;92841.09;5028884;28;20045;-67
2024/01/06 05:40:38;;;;;;;9.23;4.57;;;;;;;2.63;100.00;92853.09;5027923;28;20395;-67
2024/01/06 05:43:05;;;;;;;15.73;5.10;;;;;;;2.53;100.00;92854.66;5027405;28;20072;-67
2024/01/06 05:45:32;;;;;;;16.05;5.95;;;;;;;2.55;100.00;92852.31;5029341;28;20050;-67
2024/01/06 05:47:59;;;;;;;15.73;6.03;;;;;;;2.67;100.00;92854.59;5028609;28;20049;-67
2024/01/06 05:50:26;;;;;;;16.08;5.70;;;;;;;2.69;100.00;92862.34;5029396;28;20491;-68
2024/01/06 05:52:52;;;;;;;14.20;5.38;;;;;;;2.72;100.00;92856.94;5028970;28;20055;-67
2024/01/06 05:55:19;;;;;;;12.23;5.35;;;;;;;2.73;100.00;92861.16;5028508;28;20051;-68
2024/01/06 05:57:46;;;;;;;14.23;5.63;;;;;;;2.76;100.00;92857.69;5029061;28;20448;-68
2024/01/06 06:00:13;;;;;;;14.07;4.80;;;;;;;2.77;100.00;92863.88;5026483;28;20041;-67
2024/01/06 06:02:41;;;;;;;11.43;4.40;;;;;;;2.74;100.00;92862.72;5030410;28;20063;-67
2024/01/06 06:05:08;;;;;;;9.18;4.05;;;;;;;2.29;100.00;92867.84;5028846;28;20034;-67
2024/01/06 06:07:38;;;;;;;13.25;5.13;;;;;;;2.00;100.00;92877.91;5028627;28;20360;-67
2024/01/06 06:10:10;;;;;;;10.43;4.10;;;;;;;2.10;100.00;92871.72;5028438;28;20418;-67
2024/01/06 06:12:38;;;;;;;9.60;3.73;;;;;;;2.29;100.00;92878.66;5028945;28;20399;-67
2024/01/06 06:15:06;;;;;;;10.10;4.45;;;;;;;2.31;100.00;92876.34;5028251;28;20041;-67
2024/01/06 06:17:33;;;;;;;12.27;4.35;;;;;;;2.44;100.00;92884.84;5028683;28;20047;-67
2024/01/06 06:20:00;;;;;;;9.20;4.25;;;;;;;2.49;100.00;92879.03;5028235;28;20054;-67
2024/01/06 06:22:30;;;;;;;10.07;4.50;;;;;;;2.48;100.00;92876.72;5028825;28;20046;-67
2024/01/06 06:24:57;;;;;;;11.80;5.57;;;;;;;2.48;100.00;92880.19;5028406;28;20053;-66
2024/01/06 06:27:25;;;;;;;14.73;6.40;;;;;;;2.53;100.00;92897.97;5028903;28;20049;-67
2024/01/06 06:29:52;;;;;;;13.90;5.68;;;;;;;2.51;100.00;92898.38;5028536;28;20418;-68
2024/01/06 06:32:19;;;;;;;8.73;4.35;;;;;;;2.47;100.00;92897.59;5028440;28;20037;-67
2024/01/06 06:34:46;;;;;;;9.38;4.30;;;;;;;2.51;100.00;92901.06;5028877;28;20063;-67
2024/01/06 06:37:12;;;;;;;8.47;3.20;;;;;;;2.42;100.00;92905.38;5028577;28;20452;-67
2024/01/06 06:39:39;;;;;;;8.15;3.33;;;;;;;2.23;100.00;92901.88;5031261;28;20057;-68
2024/01/06 06:42:06;;;;;;;10.23;4.85;;;;;;;2.00;100.00;92907.69;5031590;28;20046;-67
2024/01/06 06:44:33;;;;;;;10.10;4.63;;;;;;;2.22;100.00;92905.75;5032225;28;20452;-67
2024/01/06 06:46:59;;;;;;;7.65;4.32;;;;;;;2.34;100.00;92913.47;5030054;28;20049;-67
2024/01/06 06:49:26;;;;;;;8.10;4.00;;;;;;;2.32;100.00;92910.38;5032162;28;20038;-67
2024/01/06 06:51:55;;;;;;;7.05;3.40;;;;;;;2.31;100.00;92911.53;5030698;28;20041;-68
2024/01/06 06:54:22;;;;;;;5.93;3.03;;;;;;;2.27;100.00;92910.00;5031224;28;20716;-67
2024/01/06 06:56:49;;;;;;;4.90;2.35;;;;;;;2.12;100.00;92917.34;5031957;28;20050;-67
2024/01/06 06:59:15;;;;;;;7.72;2.88;;;;;;;2.12;100.00;92910.00;5030230;28;20067;-67
2024/01/06 07:01:42;;;;;;;5.73;2.73;;;;;;;2.14;100.00;92909.63;5032202;28;20112;-67
2024/01/06 07:04:09;;;;;;;7.22;3.30;;;;;;;2.16;100.00;92913.47;5029833;28;20056;-67
2024/01/06 07:06:36;;;;;;;9.15;3.85;;;;;;;2.14;100.00;92906.91;5031821;28;20068;-67
2024/01/06 07:09:04;;;;;;;7.70;2.80;;;;;;;2.18;100.00;92918.50;5031008;28;20072;-67
2024/01/06 07:11:31;;;;;;;6.28;3.10;;;;;;;2.22;100.00;92911.16;5031728;28;20054;-67
2024/01/06 07:13:58;;;;;;;7.10;3.47;;;;;;;2.16;100.00;92915.41;5031108;28;20047;-66
2024/01/06 07:16:24;;;;;;;10.50;4.18;;;;;;;2.23;100.00;92926.22;5031471;28;20042;-67
2024/01/06 07:18:51;;;;;;;14.18;7.15;;;;;;;2.21;100.00;92923.13;5011826;28;20099;-67
2024/01/06 07:21:18;;;;;;;7.97;4.22;;;;;;;2.10;100.00;92931.25;5011440;28;20041;-67
2024/01/06 07:23:45;;;;;;;8.68;4.60;;;;;;;2.18;100.00;92926.63;5011967;28;20410;-67
2024/01/06 07:26:12;;;;;;;10.03;4.20;;;;;;;2.27;100.00;92934.34;5011309;28;20042;-67
2024/01/06 07:28:39;;;;;;;8.02;3.80;;;;;;;2.30;100.00;92930.88;5011802;28;20041;-67
2024/01/06 07:31:06;;;;;;;10.38;5.15;;;;;;;2.25;100.00;92926.63;5013068;28;20046;-67
2024/01/06 07:33:33;;;;;;;13.40;6.80;;;;;;;2.21;100.00;92925.84;5032654;28;20045;-67
2024/01/06 07:36:00;;;;;;;12.55;7.32;;;;;;;2.20;100.00;92937.84;5030214;28;20041;-67
2024/01/06 07:38:27;;;;;;;15.03;6.80;;;;;;;2.21;100.00;92931.25;5030921;28;20548;-67
2024/01/06 07:40:54;;;;;;;11.90;5.65;;;;;;;2.29;100.00;92934.75;5031062;28;20045;-67
2024/01/06 07:43:21;;;;;;;12.18;7.00;;;;;;;2.31;100.00;92941.31;5030841;28;20102;-67
2024/01/06 07:45:48;;;;;;;10.77;5.30;;;;;;;2.32;100.00;92940.16;5029805;28;20057;-67
2024/01/06 07:48:16;;;;;;;10.30;4.45;;;;;;;2.37;100.00;92945.22;5030076;28;20048;-67
2024/01/06 07:50:43;;;;;;;11.50;5.10;;;;;;;2.48;100.00;92944.44;5031142;28;20054;-68
2024/01/06 07:53:10;;;;;;;10.95;5.43;;;;;;;2.51;100.00;92944.41;5030292;28;20052;-67
2024/01/06 07:55:37;;;;;;;14.18;6.35;;;;;;;2.57;100.00;92950.97;5046157;28;20437;-67
2024/01/06 07:58:03;;;;;;;9.07;5.10;;;;;;;2.53;100.00;92949.44;5030291;28;20037;-67
2024/01/06 08:00:30;;;;;;;9.93;4.80;;;;;;;2.49;100.00;92960.25;5030972;28;20053;-67
2024/01/06 08:02:57;;;;;;;11.83;5.60;;;;;;;2.37;100.00;92947.13;5030312;28;20041;-67
2024/01/06 08:05:24;;;;;;;11.07;5.40;;;;;;;2.58;100.00;92955.25;5030847;28;20045;-67
2024/01/06 08:07:52;;;;;;;14.70;7.05;;;;;;;2.67;100.00;92957.53;5030724;28;20061;-67
2024/01/06 08:10:18;;;;;;;15.82;7.85;;;;;;;2.75;100.00;92964.50;5029898;28;20037;-67
2024/01/06 08:12:45;;;;;;;18.90;9.00;;;;;;;2.75;100.00;92964.50;5031001;28;20471;-67
2024/01/06 08:15:12;;;;;;;17.20;7.93;;;;;;;2.71;100.00;92960.25;5028789;28;20049;-67
2024/01/06 08:17:40;;;;;;;18.67;8.50;;;;;;;2.78;100.00;92965.69;5030468;28;20495;-67
2024/01/06 08:20:08;;;;;;;20.48;9.23;;;;;;;2.70;100.00;92962.19;5029735;28;20046;-67
2024/01/06 08:22:34;;;;;;;18.58;8.50;;;;;;;2.94;100.00;92965.28;5030392;28;20448;-67
2024/01/06 08:25:02;;;;;;;16.17;7.50;;;;;;;3.05;100.00;92965.25;5029773;28;20053;-67
2024/01/06 08:27:29;;;;;;;12.10;5.77;;;;;;;2.97;100.00;92970.66;5030220;28;20041;-67
2024/01/06 08:29:56;;;;;;;14.15;6.10;;;;;;;3.10;100.00;92970.25;5028546;28;20060;-67
2024/01/06 08:32:23;;;;;;;25.27;11.07;;;;;;;2.98;100.00;92979.59;5030437;28;20041;-67
2024/01/06 08:34:50;;;;;;;35.03;13.90;;;;;;;2.92;100.00;92981.91;5030341;28;20504;-67
2024/01/06 08:37:16;;;;;;;29.23;14.35;;;;;;;3.11;100.00;92969.09;5029617;28;20381;-67
2024/01/06 08:39:43;;;;;;;23.90;10.57;;;;;;;3.20;100.00;92980.31;5030224;28;20062;-67
2024/01/06 08:42:10;;;;;;;18.13;9.25;;;;;;;3.18;100.00;92979.94;5029496;28;20574;-67
2024/01/06 08:44:37;;;;;;;19.20;9.60;;;;;;;3.31;100.00;92977.56;5030025;28;20490;-68
2024/01/06 08:47:04;;;;;;;17.92;8.98;;;;;;;3.60;100.00;92983.66;5011379;28;20046;-67
2024/01/06 08:49:30;;;;;;;17.13;9.13;;;;;;;3.78;100.00;92973.50;5030067;28;20047;-67
2024/01/06 08:51:58;;;;;;;17.90;9.63;;;;;;;4.08;100.00;92980.31;5029553;28;20041;-67
2024/01/06 08:54:25;;;;;;;19.33;10.15;;;;;;;4.38;100.00;92978.97;5029830;28;20559;-67
2024/01/06 08:56:52;;;;;;;18.25;10.40;;;;;;;4.49;100.00;92982.38;5044912;28;20423;-67
2024/01/06 08:59:20;;;;;;;20.83;10.27;;;;;;;4.66;100.00;92974.47;5029200;28;20376;-67
2024/01/06 09:01:46;;;;;;;15.38;8.20;;;;;;;4.64;100.00;92977.59;5029240;28;20049;-68
2024/01/06 09:04:16;;;;;;;14.27;7.23;;;;;;;4.65;100.00;92981.88;5029044;28;20049;-67
2024/01/06 09:06:43;;;;;;;11.88;6.40;;;;;;;4.65;100.00;92987.31;5029443;28;20059;-68
2024/01/06 09:09:10;;;;;;;16.00;8.50;;;;;;;4.38;100.00;92993.31;5028390;28;20057;-67
2024/01/06 09:11:38;;;;;;;18.35;9.75;;;;;;;3.90;100.00;92998.63;5027662;28;20045;-68
2024/01/06 09:14:04;;;;;;;19.17;9.88;;;;;;;3.34;100.00;93004.69;5028800;28;20050;-67
2024/01/06 09:16:31;;;;;;;16.83;8.63;;;;;;;3.74;100.00;93010.75;5029007;28;20066;-67
2024/01/06 09:18:58;;;;;;;17.70;8.77;;;;;;;3.42;100.00;93012.78;5029017;28;20053;-67
2024/01/06 09:21:26;;;;;;;17.60;8.55;;;;;;;3.65;100.00;93009.63;5029368;28;20093;-67
2024/01/06 09:23:53;;;;;;;17.05;7.65;;;;;;;3.67;100.00;93010.75;5029540;28;20487;-68
2024/01/06 09:26:19;;;;;;;17.15;9.57;;;;;;;3.64;100.00;93013.47;5028823;28;20449;-68
2024/01/06 09:28:47;;;;;;;10.03;4.90;;;;;;;3.74;100.00;93013.47;5029415;28;20546;-67
2024/01/06 09:31:14;;;;;;;13.45;7.65;;;;;;;3.49;100.00;93010.06;5029143;28;20466;-67
2024/01/06 09:33:41;;;;;;;14.45;6.00;;;;;;;3.39;100.00;93012.41;5029471;28;20045;-67
2024/01/06 09:36:11;;;;;;;9.93;4.80;;;;;;;3.42;100.00;93013.56;5028587;28;20055;-67
2024/01/06 09:38:38;;;;;;;9.20;4.18;;;;;;;3.31;100.00;93019.00;5029114;28;20587;-67
2024/01/06 09:41:05;;;;;;;9.53;4.50;;;;;;;3.38;100.00;93029.06;5028253;28;20041;-67
2024/01/06 09:43:32;;;;;;;10.52;5.07;;;;;;;3.79;100.00;93015.75;5029386;28;20054;-67
2024/01/06 09:46:13;;;;;;;10.88;4.97;;;;;;;3.38;100.00;93013.56;5028758;28;20048;-67
2024/01/06 09:48:41;;;;;;;10.07;4.60;;;;;;;2.74;100.00;93019.09;5029183;28;20464;-68
2024/01/06 09:51:11;;;;;;;9.68;4.82;;;;;;;2.63;100.00;93023.72;5028373;28;20410;-67
2024/01/06 09:53:47;;;;;;;7.83;4.10;;;;;;;2.59;100.00;93018.31;5028008;28;20413;-67
2024/01/06 09:56:17;;;;;;;6.65;3.88;;;;;;;3.12;100.00;93022.94;5028612;28;20048;-67
2024/01/06 09:58:45;;;;;;;9.10;4.43;;;;;;;2.78;100.00;93025.28;5029072;28;20372;-67
2024/01/06 10:01:11;;;;;;;9.02;4.38;;;;;;;3.24;100.00;93031.81;5028400;28;20052;-68
2024/01/06 10:03:39;;;;;;;10.88;4.72;;;;;;;3.30;100.00;93022.09;5044358;28;20045;-68
2024/01/06 10:06:06;;;;;;;7.90;4.30;;;;;;;3.55;100.00;93028.25;5028373;28;20037;-67
2024/01/06 10:08:33;;;;;;;9.07;5.30;;;;;;;3.16;100.00;93036.47;5028872;28;20059;-68
2024/01/06 10:11:00;;;;;;;9.52;5.30;;;;;;;3.39;100.00;93025.94;5043773;28;20401;-67
2024/01/06 10:13:30;;;;;;;8.40;5.07;;;;;;;3.40;100.00;93026.72;5032872;28;20037;-68
2024/01/06 10:15:57;;;;;;;9.75;5.60;;;;;;;3.45;100.00;93025.56;5032356;28;20037;-66
2024/01/06 10:18:25;;;;;;;9.23;4.77;;;;;;;3.42;100.00;93024.41;5032060;28;20041;-67
2024/01/06 10:20:53;;;;;;;10.10;4.90;;;;;;;3.21;100.00;93027.94;5032565;28;20050;-68
2024/01/06 10:23:23;;;;;;;10.13;5.28;;;;;;;2.97;100.00;93022.16;5031987;28;20050;-67
2024/01/06 10:25:54;;;;;;;6.10;3.70;;;;;;;3.56;100.00;93018.16;5032485;28;20050;-68
2024/01/06 10:28:24;;;;;;;7.53;3.42;;;;;;;3.28;100.00;93019.00;5031565;28;20422;-67
2024/01/06 10:30:53;;;;;;;6.57;3.53;;;;;;;3.35;100.00;93006.22;5032550;28;20567;-69
2024/01/06 10:33:22;;;;;;;8.90;3.80;;;;;;;3.25;100.00;93009.72;5031413;28;20042;-67
2024/01/06 10:35:49;;;;;;;7.20;3.17;;;;;;;3.34;100.00;93007.38;5032408;28;20057;-68
2024/01/06 10:38:17;;;;;;;9.77;5.13;;;;;;;3.67;100.00;93012.72;5031817;28;20053;-68
2024/01/06 10:41:07;;;;;;;7.00;3.13;;;;;;;3.67;100.00;93008.03;5032514;28;20059;-68
2024/01/06 10:43:41;;;;;;;5.87;3.30;;;;;;;4.01;100.00;93007.50;5031408;28;20045;-68
2024/01/06 10:46:11;;;;;;;8.05;4.25;;;;;;;3.55;100.00;93003.06;5031737;28;20448;-67
2024/01/06 10:48:42;;;;;;;7.93;4.25;;;;;;;4.07;100.00;93003.22;5032342;28;20045;-67
2024/01/06 10:51:12;;;;;;;9.13;4.60;;;;;;;3.70;100.00;93011.91;5031286;28;20045;-67
2024/01/06 10:53:42;;;;;;;10.15;5.47;;;;;;;3.72;100.00;93009.56;5032005;28;20383;-67
2024/01/06 10:56:12;;;;;;;8.03;3.93;;;;;;;3.67;100.00;92997.19;5031453;28;20053;-67
2024/01/06 10:58:47;;;;;;;7.22;3.60;;;;;;;4.30;100.00;92996.47;5031944;28;20049;-68
2024/01/06 11:01:19;;;;;;;6.57;3.60;;;;;;;4.03;100.00;93002.47;5028433;28;20056;-67
2024/01/06 11:03:49;;;;;;;7.95;4.50;;;;;;;3.20;100.00;93000.06;5029917;28;20064;-68
2024/01/06 11:06:18;;;;;;;13.05;7.05;;;;;;;3.80;100.00;92992.09;5030911;28;20106;-68
2024/01/06 11:08:54;;;;;;;9.13;3.80;;;;;;;3.85;100.00;92991.69;5031682;28;20046;-68
2024/01/06 11:11:23;;;;;;;7.57;3.50;;;;;;;4.48;100.00;92990.91;5030772;28;20044;-67
2024/01/06 11:13:50;;;;;;;5.70;3.67;;;;;;;4.00;100.00;92984.22;5030448;28;20049;-67
2024/01/06 11:16:36;;;;;;;9.38;3.70;;;;;;;4.33;100.00;92985.59;5013012;28;20486;-67
2024/01/06 11:19:32;;;;;;;8.90;4.03;;;;;;;5.03;100.00;92979.22;5012616;28;20531;-67
2024/01/06 11:22:17;;;;;;;7.27;3.33;;;;;;;5.13;100.00;92980.25;5030948;28;20099;-67
2024/01/06 11:24:50;;;;;;;7.30;3.70;;;;;;;4.79;100.00;92979.03;5030307;28;20057;-68
2024/01/06 11:27:19;;;;;;;8.40;4.70;;;;;;;4.55;100.00;92978.06;5029318;28;20045;-68
2024/01/06 11:29:46;;;;;;;10.02;4.80;;;;;;;4.27;100.00;92975.56;5031263;28;20057;-68
2024/01/06 11:32:38;;;;;;;6.10;3.30;;;;;;;4.29;100.00;92976.69;5030797;28;20045;-67